createdAt,value
2017-11-13T00:00:35.025Z,11.45
2017-11-13T00:03:03.064Z,9.30
2017-11-13T00:05:31.857Z,10.07
2017-11-13T00:07:59.900Z,10.98
2017-11-13T00:10:27.927Z,11.43
2017-11-13T00:12:56.172Z,11.57
2017-11-13T00:15:24.188Z,14.30
2017-11-13T00:17:52.217Z,10.68
2017-11-13T00:20:20.256Z,11.40
2017-11-13T00:22:48.277Z,9.15
2017-11-13T00:25:17.080Z,10.02
2017-11-13T00:27:45.100Z,9.77
2017-11-13T00:30:13.137Z,8.63
2017-11-13T00:32:41.911Z,9.80
2017-11-13T00:35:09.972Z,12.13
2017-11-13T00:37:37.996Z,13.68
2017-11-13T00:40:06.784Z,8.05
2017-11-13T00:42:34.824Z,9.45
2017-11-13T00:45:02.843Z,9.48
2017-11-13T00:47:30.878Z,11.38
2017-11-13T00:49:58.897Z,10.75
2017-11-13T00:52:26.945Z,13.68
2017-11-13T00:54:54.995Z,12.30
2017-11-13T00:57:23.793Z,9.93
2017-11-13T00:59:51.818Z,11.85
2017-11-13T01:02:19.888Z,13.52
2017-11-13T01:04:48.678Z,10.77
2017-11-13T01:07:17.451Z,13.48
2017-11-13T01:09:45.487Z,13.35
2017-11-13T01:12:13.507Z,10.88
2017-11-13T01:14:41.555Z,14.30
2017-11-13T01:17:09.583Z,15.43
2017-11-13T01:19:37.631Z,13.45
2017-11-13T01:22:05.635Z,8.98
2017-11-13T01:24:33.686Z,13.90
2017-11-13T01:27:01.669Z,10.60
2017-11-13T01:29:29.711Z,11.68
2017-11-13T01:31:57.688Z,14.87
2017-11-13T01:34:25.682Z,14.77
2017-11-13T01:36:54.461Z,11.10
2017-11-13T01:39:22.474Z,10.65
2017-11-13T01:41:51.218Z,14.93
2017-11-13T01:44:19.438Z,10.20
2017-11-13T01:46:47.430Z,12.20
2017-11-13T01:49:16.686Z,16.67
2017-11-13T01:51:44.833Z,14.35
2017-11-13T01:54:13.590Z,10.70
2017-11-13T01:56:41.609Z,13.23
2017-11-13T01:59:10.402Z,14.07
2017-11-13T02:01:38.389Z,15.00
2017-11-13T02:04:07.145Z,13.65
2017-11-13T02:06:35.176Z,13.05
2017-11-13T02:09:03.933Z,14.65
2017-11-13T02:11:31.925Z,13.07
2017-11-13T02:13:59.970Z,12.52
2017-11-13T02:16:27.964Z,15.85
2017-11-13T02:18:55.949Z,12.30
2017-11-13T02:21:23.973Z,12.70
2017-11-13T02:23:53.474Z,15.30
2017-11-13T02:26:21.462Z,13.43
2017-11-13T02:28:49.493Z,12.30
2017-11-13T02:31:17.486Z,14.25
2017-11-13T02:33:45.485Z,11.23
2017-11-13T02:36:13.713Z,13.52
2017-11-13T02:38:41.710Z,21.27
2017-11-13T02:41:10.461Z,15.40
2017-11-13T02:43:38.474Z,11.68
2017-11-13T02:46:06.465Z,16.02
2017-11-13T02:48:35.228Z,17.33
2017-11-13T02:51:03.254Z,11.82
2017-11-13T02:53:32.038Z,13.50
2017-11-13T02:56:00.029Z,13.15
2017-11-13T02:58:28.065Z,14.02
2017-11-13T03:00:56.063Z,17.80
2017-11-13T03:03:24.044Z,15.88
2017-11-13T03:05:52.086Z,14.82
2017-11-13T03:08:20.840Z,17.45
2017-11-13T03:10:48.837Z,16.20
2017-11-13T03:13:17.049Z,16.25
2017-11-13T03:15:45.809Z,16.90
2017-11-13T03:18:13.815Z,15.93
2017-11-13T03:20:41.822Z,15.65
2017-11-13T03:23:09.817Z,13.70
2017-11-13T03:25:37.811Z,14.85
2017-11-13T03:28:06.615Z,15.05
2017-11-13T03:30:34.590Z,16.00
2017-11-13T03:33:02.569Z,13.77
2017-11-13T03:35:30.604Z,14.25
2017-11-13T03:37:58.581Z,14.30
2017-11-13T03:40:28.189Z,15.02
2017-11-13T03:42:56.193Z,15.73
2017-11-13T03:45:24.197Z,15.60
2017-11-13T03:47:52.954Z,12.75
2017-11-13T03:50:20.982Z,14.73
2017-11-13T03:52:49.741Z,15.98
2017-11-13T03:55:17.730Z,12.35
2017-11-13T03:57:47.266Z,13.18
2017-11-13T04:00:15.254Z,13.95
2017-11-13T04:02:44.034Z,14.80
2017-11-13T04:05:12.070Z,13.23
2017-11-13T04:07:40.067Z,15.95
2017-11-13T04:10:08.061Z,11.23
2017-11-13T04:12:36.086Z,14.50
2017-11-13T04:15:04.842Z,12.23
2017-11-13T04:17:32.840Z,13.10
2017-11-13T04:20:00.854Z,12.93
2017-11-13T04:22:29.605Z,12.80
2017-11-13T04:24:57.597Z,14.80
2017-11-13T04:27:25.717Z,12.60
2017-11-13T04:29:54.482Z,10.77
2017-11-13T04:32:22.477Z,10.75
2017-11-13T04:34:50.528Z,15.43
2017-11-13T04:37:18.570Z,11.60
2017-11-13T04:39:47.328Z,12.57
2017-11-13T04:42:15.461Z,9.52
2017-11-13T04:44:43.455Z,9.45
2017-11-13T04:47:12.198Z,12.18
2017-11-13T04:49:40.230Z,9.85
2017-11-13T04:52:08.981Z,12.93
2017-11-13T04:54:36.978Z,12.77
2017-11-13T04:57:04.999Z,11.32
2017-11-13T04:59:33.757Z,14.18
2017-11-13T05:02:01.742Z,10.52
2017-11-13T05:04:29.757Z,11.18
2017-11-13T05:06:58.534Z,10.50
2017-11-13T05:09:26.521Z,13.00
2017-11-13T05:11:54.534Z,14.40
2017-11-13T05:14:23.297Z,10.82
2017-11-13T05:16:51.285Z,12.37
2017-11-13T05:19:19.303Z,14.98
2017-11-13T05:21:47.290Z,11.63
2017-11-13T05:24:15.277Z,12.65
2017-11-13T05:26:43.330Z,17.00
2017-11-13T05:29:11.318Z,9.75
2017-11-13T05:31:40.078Z,12.57
2017-11-13T05:34:08.195Z,13.35
2017-11-13T05:36:36.173Z,11.18
2017-11-13T05:39:04.161Z,14.98
2017-11-13T05:41:32.346Z,12.23
2017-11-13T05:44:00.333Z,9.73
2017-11-13T05:46:29.097Z,16.08
2017-11-13T05:48:57.125Z,10.32
2017-11-13T05:51:25.873Z,7.60
2017-11-13T05:53:53.864Z,14.43
2017-11-13T05:56:22.006Z,11.00
2017-11-13T05:58:50.029Z,12.80
2017-11-13T06:01:18.009Z,9.80
2017-11-13T06:03:46.041Z,9.30
2017-11-13T06:06:14.798Z,7.37
2017-11-13T06:08:42.783Z,8.90
2017-11-13T06:11:10.809Z,11.07
2017-11-13T06:13:39.557Z,10.60
2017-11-13T06:16:07.553Z,9.82
2017-11-13T06:18:35.577Z,9.27
2017-11-13T06:21:04.321Z,10.13
2017-11-13T06:23:32.315Z,10.07
2017-11-13T06:26:01.138Z,11.30
2017-11-13T06:28:29.121Z,9.85
2017-11-13T06:30:57.114Z,10.55
2017-11-13T06:33:25.918Z,11.88
2017-11-13T06:35:54.677Z,8.27
2017-11-13T06:38:22.678Z,10.50
2017-11-13T06:40:50.702Z,11.73
2017-11-13T06:43:18.697Z,9.38
2017-11-13T06:45:46.679Z,9.95
2017-11-13T06:48:14.721Z,10.25
2017-11-13T06:50:42.718Z,9.43
2017-11-13T06:53:11.468Z,9.40
2017-11-13T06:55:39.478Z,10.10
2017-11-13T06:58:07.469Z,10.60
2017-11-13T07:00:35.449Z,9.02
2017-11-13T07:03:03.549Z,14.68
2017-11-13T07:05:32.297Z,10.10
2017-11-13T07:08:00.293Z,10.52
2017-11-13T07:10:28.305Z,8.80
2017-11-13T07:12:56.334Z,7.43
2017-11-13T07:15:24.322Z,9.55
2017-11-13T07:17:52.552Z,8.60
2017-11-13T07:20:20.565Z,8.45
2017-11-13T07:22:49.336Z,11.55
2017-11-13T07:25:18.854Z,8.13
2017-11-13T07:27:46.838Z,9.65
2017-11-13T07:30:14.849Z,6.97
2017-11-13T07:32:43.632Z,9.63
2017-11-13T07:35:12.464Z,9.32
2017-11-13T07:37:41.323Z,8.85
2017-11-13T07:40:09.333Z,10.13
2017-11-13T07:42:38.090Z,9.02
2017-11-13T07:45:06.086Z,13.82
2017-11-13T07:47:34.089Z,9.43
2017-11-13T07:50:02.844Z,7.47
2017-11-13T07:52:30.826Z,9.00
2017-11-13T07:54:58.849Z,11.05
2017-11-13T07:57:27.601Z,8.50
2017-11-13T07:59:56.383Z,6.57
2017-11-13T08:02:24.402Z,8.20
2017-11-13T08:04:52.389Z,10.35
2017-11-13T08:07:20.385Z,10.18
2017-11-13T08:09:48.574Z,8.07
2017-11-13T08:12:18.065Z,5.82
2017-11-13T08:14:46.081Z,8.48
2017-11-13T08:17:14.182Z,7.55
2017-11-13T08:19:42.928Z,5.70
2017-11-13T08:22:10.926Z,5.65
2017-11-13T08:24:39.047Z,6.45
2017-11-13T08:27:07.789Z,8.05
2017-11-13T08:29:35.774Z,8.27
2017-11-13T08:32:03.997Z,6.97
2017-11-13T08:34:32.916Z,6.95
2017-11-13T08:37:00.906Z,5.35
2017-11-13T08:39:29.713Z,5.50
2017-11-13T08:41:58.453Z,8.20
2017-11-13T08:44:26.446Z,5.80
2017-11-13T08:46:54.557Z,4.78
2017-11-13T08:49:22.547Z,6.28
2017-11-13T08:51:50.959Z,5.97
2017-11-13T08:54:19.779Z,7.03
2017-11-13T08:56:47.753Z,5.35
2017-11-13T08:59:15.738Z,6.90
2017-11-13T09:01:43.780Z,4.47
2017-11-13T09:04:11.766Z,5.55
2017-11-13T09:06:39.749Z,5.95
2017-11-13T09:09:07.805Z,5.25
2017-11-13T09:11:35.794Z,4.90
2017-11-13T09:14:03.790Z,5.95
2017-11-13T09:16:31.991Z,4.62
2017-11-13T09:18:59.970Z,6.00
2017-11-13T09:21:27.958Z,5.47
2017-11-13T09:23:56.797Z,6.95
2017-11-13T09:26:25.773Z,5.55
2017-11-13T09:28:54.602Z,6.65
2017-11-13T09:31:22.621Z,5.28
2017-11-13T09:33:50.602Z,5.37
2017-11-13T09:36:18.590Z,5.35
2017-11-13T09:38:46.601Z,5.32
2017-11-13T09:41:15.376Z,7.87
2017-11-13T09:43:43.358Z,4.62
2017-11-13T09:46:11.401Z,4.00
2017-11-13T09:48:39.374Z,3.40
2017-11-13T09:51:07.362Z,4.47
2017-11-13T09:53:35.373Z,4.62
2017-11-13T09:56:03.366Z,3.50
2017-11-13T09:58:31.349Z,6.35
2017-11-13T10:01:00.381Z,6.18
2017-11-13T10:03:28.362Z,4.65
2017-11-13T10:05:57.118Z,3.65
2017-11-13T10:08:25.341Z,3.25
2017-11-13T10:10:53.331Z,4.37
2017-11-13T10:13:21.311Z,5.15
2017-11-13T10:15:50.126Z,4.55
2017-11-13T10:18:18.870Z,3.20
2017-11-13T10:20:46.867Z,5.18
2017-11-13T10:23:14.873Z,7.53
2017-11-13T10:25:42.876Z,3.75
2017-11-13T10:28:10.849Z,3.75
2017-11-13T10:30:39.638Z,5.10
2017-11-13T10:33:07.619Z,4.32
2017-11-13T10:35:35.605Z,2.87
2017-11-13T10:38:03.637Z,5.20
2017-11-13T10:40:31.642Z,3.58
2017-11-13T10:42:59.629Z,3.78
2017-11-13T10:45:27.648Z,3.33
2017-11-13T10:47:56.414Z,2.65
2017-11-13T10:50:24.399Z,4.97
2017-11-13T10:52:52.604Z,3.12
2017-11-13T10:55:20.613Z,4.07
2017-11-13T10:57:49.350Z,3.10
2017-11-13T11:00:17.381Z,4.75
2017-11-13T11:02:46.137Z,3.40
2017-11-13T11:05:14.127Z,3.72
2017-11-13T11:07:42.146Z,3.60
2017-11-13T11:10:10.894Z,3.05
2017-11-13T11:12:38.882Z,2.37
2017-11-13T11:15:08.656Z,2.22
2017-11-13T11:17:39.584Z,3.90
2017-11-13T11:20:07.565Z,2.72
2017-11-13T11:22:46.303Z,4.95
2017-11-13T11:25:14.303Z,4.60
2017-11-13T11:27:42.286Z,4.40
2017-11-13T11:30:21.630Z,3.45
2017-11-13T11:32:51.090Z,2.30
2017-11-13T11:38:13.970Z,3.17
2017-11-13T11:40:45.505Z,2.80
2017-11-13T11:43:13.494Z,4.05
2017-11-13T11:45:42.066Z,2.53
2017-11-13T11:48:21.972Z,2.80
2017-11-13T11:50:50.719Z,2.17
2017-11-13T11:53:18.710Z,3.17
2017-11-13T11:55:50.397Z,2.40
2017-11-13T11:58:18.382Z,1.55
2017-11-13T12:00:46.365Z,3.08
2017-11-13T12:03:15.161Z,1.05
2017-11-13T12:05:43.150Z,4.35
2017-11-13T12:08:11.133Z,3.80
2017-11-13T12:10:39.166Z,3.08
2017-11-13T12:13:07.170Z,1.65
2017-11-13T12:15:35.141Z,1.50
2017-11-13T12:18:03.145Z,1.87
2017-11-13T12:20:31.135Z,0.95
2017-11-13T12:22:59.124Z,1.10
2017-11-13T12:25:28.656Z,3.05
2017-11-13T12:27:56.638Z,1.62
2017-11-13T12:30:25.400Z,5.28
2017-11-13T12:32:53.545Z,2.22
2017-11-13T12:35:21.695Z,2.65
2017-11-13T12:37:49.769Z,1.83
2017-11-13T12:40:17.978Z,4.20
2017-11-13T12:42:46.034Z,2.35
2017-11-13T12:45:14.122Z,1.20
2017-11-13T12:47:42.210Z,0.70
2017-11-13T12:50:10.178Z,3.10
2017-11-13T12:52:38.161Z,1.00
2017-11-13T12:55:06.174Z,1.58
2017-11-13T12:57:34.162Z,1.50
2017-11-13T13:00:15.959Z,1.17
2017-11-13T13:02:43.955Z,0.85
2017-11-13T13:05:12.710Z,1.15
2017-11-13T13:07:40.825Z,1.23
2017-11-13T13:10:10.308Z,0.80
2017-11-13T13:12:38.290Z,2.37
2017-11-13T13:15:06.391Z,1.48
2017-11-13T13:17:34.373Z,1.05
2017-11-13T13:20:02.372Z,1.50
2017-11-13T13:22:30.574Z,1.92
2017-11-13T13:24:58.554Z,1.85
2017-11-13T13:27:26.545Z,4.10
2017-11-13T13:29:55.693Z,1.30
2017-11-13T13:32:23.668Z,3.65
2017-11-13T13:34:51.642Z,1.83
2017-11-13T13:37:19.665Z,2.33
2017-11-13T13:39:47.656Z,1.80
2017-11-13T13:42:18.506Z,4.87
2017-11-13T13:44:46.574Z,1.52
2017-11-13T13:47:14.577Z,2.37
2017-11-13T13:49:42.561Z,2.10
2017-11-13T13:52:10.621Z,1.50
2017-11-13T13:54:38.614Z,2.08
2017-11-13T13:57:06.594Z,1.10
2017-11-13T13:59:34.630Z,2.95
2017-11-13T14:02:02.624Z,3.05
2017-11-13T14:04:30.852Z,1.85
2017-11-13T14:06:58.883Z,2.42
2017-11-13T14:09:26.884Z,1.20
2017-11-13T14:11:54.854Z,1.52
2017-11-13T14:14:22.858Z,1.20
2017-11-13T14:16:50.839Z,1.30
2017-11-13T14:19:18.822Z,2.60
2017-11-13T14:21:46.861Z,1.98
2017-11-13T14:24:15.617Z,3.08
2017-11-13T14:26:43.602Z,2.10
2017-11-13T14:29:11.655Z,1.50
2017-11-13T14:31:39.641Z,3.05
2017-11-13T14:34:07.633Z,1.87
2017-11-13T14:36:35.658Z,1.33
2017-11-13T14:39:03.645Z,1.55
2017-11-13T14:41:31.632Z,1.52
2017-11-13T14:44:00.419Z,2.60
2017-11-13T14:46:28.414Z,2.95
2017-11-13T14:48:56.538Z,2.95
2017-11-13T14:51:26.678Z,1.92
2017-11-13T14:53:55.141Z,2.75
2017-11-13T14:56:37.646Z,2.62
2017-11-13T14:59:15.069Z,5.68
2017-11-13T15:01:45.424Z,1.87
2017-11-13T15:04:29.674Z,3.53
2017-11-13T15:07:07.650Z,2.25
2017-11-13T15:09:38.060Z,1.75
2017-11-13T15:12:15.865Z,2.03
2017-11-13T15:14:52.227Z,2.37
2017-11-13T15:17:21.306Z,1.80
2017-11-13T15:19:51.261Z,2.40
2017-11-13T15:22:23.020Z,1.85
2017-11-13T15:27:24.540Z,2.40
2017-11-13T15:30:06.450Z,4.12
2017-11-13T15:32:52.043Z,1.70
2017-11-13T15:35:26.423Z,3.42
2017-11-13T15:37:56.949Z,1.73
2017-11-13T15:40:30.713Z,1.35
2017-11-13T15:43:18.385Z,1.40
2017-11-13T15:45:50.322Z,1.40
2017-11-13T15:48:18.353Z,1.33
2017-11-13T15:50:51.411Z,2.33
2017-11-13T15:53:20.370Z,2.90
2017-11-13T15:55:48.403Z,2.12
2017-11-13T15:58:16.382Z,3.65
2017-11-13T16:00:57.798Z,3.15
2017-11-13T16:03:26.300Z,1.58
2017-11-13T16:05:56.256Z,1.92
2017-11-13T16:08:24.213Z,2.37
2017-11-13T16:10:52.189Z,1.75
2017-11-13T16:13:20.198Z,2.67
2017-11-13T16:15:48.193Z,4.18
2017-11-13T16:18:16.177Z,2.28
2017-11-13T16:20:44.222Z,1.62
2017-11-13T16:23:12.969Z,2.35
2017-11-13T16:25:40.945Z,5.40
2017-11-13T16:28:08.985Z,3.33
2017-11-13T16:30:37.742Z,3.87
2017-11-13T16:33:05.725Z,4.87
2017-11-13T16:35:33.742Z,3.45
2017-11-13T16:38:02.486Z,4.65
2017-11-13T16:40:30.475Z,6.68
2017-11-13T16:42:58.704Z,3.65
2017-11-13T16:45:27.450Z,4.35
2017-11-13T16:47:55.457Z,5.43
2017-11-13T16:50:23.477Z,4.20
2017-11-13T16:52:52.230Z,3.97
2017-11-13T16:55:20.297Z,3.10
2017-11-13T16:57:48.337Z,3.45
2017-11-13T17:00:16.333Z,4.25
2017-11-13T17:02:44.299Z,4.65
2017-11-13T17:05:12.324Z,3.10
2017-11-13T17:07:40.328Z,3.65
2017-11-13T17:10:08.321Z,3.17
2017-11-13T17:12:36.353Z,3.42
2017-11-13T17:15:04.374Z,2.80
2017-11-13T17:17:32.353Z,7.32
2017-11-13T17:20:00.354Z,4.35
2017-11-13T17:22:28.340Z,4.93
2017-11-13T17:24:56.325Z,4.40
2017-11-13T17:27:24.333Z,5.28
2017-11-13T17:29:53.087Z,5.45
2017-11-13T17:32:21.067Z,4.40
2017-11-13T17:34:49.093Z,7.12
2017-11-13T17:37:17.073Z,4.75
2017-11-13T17:39:45.061Z,3.67
2017-11-13T17:42:13.862Z,8.82
2017-11-13T17:44:42.613Z,5.62
2017-11-13T17:47:10.597Z,5.43
2017-11-13T17:49:38.609Z,5.50
2017-11-13T17:52:06.596Z,3.92
2017-11-13T17:54:34.592Z,7.53
2017-11-13T17:57:02.592Z,3.33
2017-11-13T17:59:31.344Z,5.93
2017-11-13T18:01:59.340Z,4.82
2017-11-13T18:04:28.262Z,4.65
2017-11-13T18:06:56.504Z,3.87
2017-11-13T18:09:24.490Z,4.87
2017-11-13T18:11:52.516Z,4.12
2017-11-13T18:14:21.283Z,4.85
2017-11-13T18:16:49.254Z,5.00
2017-11-13T18:19:17.489Z,5.75
2017-11-13T18:21:45.482Z,7.43
2017-11-13T18:24:14.230Z,4.53
2017-11-13T18:26:42.249Z,8.27
2017-11-13T18:29:10.997Z,5.30
2017-11-13T18:31:38.981Z,6.60
2017-11-13T18:34:07.002Z,7.32
2017-11-13T18:36:34.986Z,8.82
2017-11-13T18:39:02.980Z,4.75
2017-11-13T18:41:30.986Z,8.02
2017-11-13T18:43:58.982Z,4.60
2017-11-13T18:46:26.982Z,7.00
2017-11-13T18:48:55.126Z,4.62
2017-11-13T18:51:23.879Z,4.82
2017-11-13T18:53:51.861Z,5.12
2017-11-13T18:56:19.905Z,5.55
2017-11-13T18:58:47.893Z,4.75
2017-11-13T19:01:15.874Z,11.85
2017-11-13T19:03:43.904Z,5.10
2017-11-13T19:06:13.428Z,7.45
2017-11-13T19:08:41.409Z,5.50
2017-11-13T19:11:09.446Z,5.10
2017-11-13T19:13:37.463Z,3.50
2017-11-13T19:16:05.430Z,4.70
2017-11-13T19:18:33.437Z,9.40
2017-11-13T19:21:01.435Z,4.87
2017-11-13T19:23:29.426Z,4.93
2017-11-13T19:25:58.209Z,4.85
2017-11-13T19:28:26.204Z,3.92
2017-11-13T19:30:57.855Z,5.50
2017-11-13T19:33:25.837Z,5.53
2017-11-13T19:35:53.825Z,4.55
2017-11-13T19:38:21.809Z,6.47
2017-11-13T19:40:49.836Z,5.03
2017-11-13T19:43:17.821Z,5.30
2017-11-13T19:45:45.800Z,4.95
2017-11-13T19:48:13.851Z,4.70
2017-11-13T19:50:41.869Z,5.78
2017-11-13T19:53:09.854Z,8.55
2017-11-13T19:55:37.885Z,8.13
2017-11-13T19:58:05.880Z,9.90
2017-11-13T20:00:33.884Z,6.65
2017-11-13T20:03:01.972Z,6.70
2017-11-13T20:05:29.935Z,5.47
2017-11-13T20:07:59.501Z,6.18
2017-11-13T20:10:27.530Z,7.40
2017-11-13T20:12:56.278Z,6.80
2017-11-13T20:15:24.263Z,5.78
2017-11-13T20:17:52.419Z,5.05
2017-11-13T20:20:21.202Z,7.30
2017-11-13T20:22:49.185Z,7.68
2017-11-13T20:25:17.222Z,8.77
2017-11-13T20:27:45.209Z,8.70
2017-11-13T20:30:14.578Z,13.73
2017-11-13T20:32:42.869Z,9.88
2017-11-13T20:35:11.657Z,7.68
2017-11-13T20:37:40.433Z,10.73
2017-11-13T20:40:09.045Z,8.32
2017-11-13T20:42:37.037Z,10.90
2017-11-13T20:45:05.781Z,7.72
2017-11-13T20:47:33.799Z,8.23
2017-11-13T20:50:01.776Z,7.80
2017-11-13T20:52:29.759Z,13.30
2017-11-13T20:54:57.813Z,12.18
2017-11-13T20:57:25.797Z,12.18
2017-11-13T20:59:53.789Z,9.48
2017-11-13T21:02:21.849Z,14.85
2017-11-13T21:04:49.834Z,16.15
2017-11-13T21:07:17.817Z,10.88
2017-11-13T21:09:45.841Z,17.48
2017-11-13T21:12:13.829Z,23.58
2017-11-13T21:14:41.837Z,11.77
2017-11-13T21:17:10.622Z,14.63
2017-11-13T21:19:38.613Z,13.98
2017-11-13T21:22:07.361Z,14.80
2017-11-13T21:24:35.414Z,17.55
2017-11-13T21:27:04.187Z,13.75
2017-11-13T21:29:32.154Z,13.20
2017-11-13T21:32:00.173Z,10.45
2017-11-13T21:34:28.930Z,10.48
2017-11-13T21:36:57.065Z,12.55
2017-11-13T21:39:25.912Z,12.98
2017-11-13T21:41:53.901Z,12.85
2017-11-13T21:44:21.902Z,10.98
2017-11-13T21:46:49.933Z,10.07
2017-11-13T21:49:17.939Z,12.75
2017-11-13T21:51:45.921Z,11.05
2017-11-13T21:54:13.954Z,10.25
2017-11-13T21:56:42.716Z,15.40
2017-11-13T21:59:10.701Z,13.32
2017-11-13T22:01:38.738Z,20.88
2017-11-13T22:04:06.737Z,17.10
2017-11-13T22:06:34.712Z,11.07
2017-11-13T22:09:05.942Z,12.07
2017-11-13T22:11:34.706Z,15.63
2017-11-13T22:14:07.104Z,12.70
2017-11-13T22:16:35.206Z,12.85
2017-11-13T22:19:03.186Z,8.15
2017-11-13T22:21:31.177Z,15.32
2017-11-13T22:23:59.985Z,12.60
2017-11-13T22:26:28.749Z,8.77
2017-11-13T22:28:56.729Z,8.05
2017-11-13T22:31:24.777Z,12.80
2017-11-13T22:33:52.773Z,13.35
2017-11-13T22:36:20.767Z,13.68
2017-11-13T22:38:48.769Z,9.48
2017-11-13T22:41:16.752Z,14.85
2017-11-13T22:43:44.738Z,10.60
2017-11-13T22:46:12.758Z,11.90
2017-11-13T22:48:40.754Z,12.43
2017-11-13T22:51:08.733Z,10.00
2017-11-13T22:53:36.762Z,11.82
2017-11-13T22:56:04.769Z,13.30
2017-11-13T22:58:33.522Z,15.75
2017-11-13T23:01:01.557Z,10.95
2017-11-13T23:03:30.326Z,10.63
2017-11-13T23:05:58.315Z,9.48
2017-11-13T23:08:26.533Z,9.50
2017-11-13T23:10:54.537Z,8.52
2017-11-13T23:13:22.518Z,9.50
2017-11-13T23:15:50.566Z,9.90
2017-11-13T23:18:19.322Z,9.20
2017-11-13T23:20:47.316Z,10.82
2017-11-13T23:23:15.373Z,7.53
2017-11-13T23:25:43.365Z,10.15
2017-11-13T23:28:11.359Z,6.53
2017-11-13T23:30:39.377Z,7.37
2017-11-13T23:33:07.358Z,6.43
2017-11-13T23:35:35.351Z,8.77
2017-11-13T23:38:04.140Z,8.55
2017-11-13T23:40:32.138Z,8.43
2017-11-13T23:43:00.121Z,8.10
2017-11-13T23:45:29.113Z,7.35
2017-11-13T23:47:58.025Z,10.02
2017-11-13T23:50:26.021Z,7.43
2017-11-13T23:52:54.041Z,6.60
2017-11-13T23:55:22.034Z,7.35
2017-11-13T23:57:50.025Z,6.47
